createdAt,value
2023-01-23T00:01:41.787Z,102767.61
2023-01-23T00:04:12.971Z,102771.23
2023-01-23T00:06:41.235Z,102776.22
2023-01-23T00:09:10.193Z,102776.09
2023-01-23T00:11:38.621Z,102777.90
2023-01-23T00:14:06.977Z,102782.27
2023-01-23T00:16:36.686Z,102781.15
2023-01-23T00:19:04.975Z,102783.95
2023-01-23T00:21:33.460Z,102784.80
2023-01-23T00:24:02.460Z,102788.45
2023-01-23T00:26:35.652Z,102789.86
2023-01-23T00:29:04.889Z,102794.02
2023-01-23T00:31:36.461Z,102792.05
2023-01-23T00:34:11.973Z,102791.30
2023-01-23T00:36:42.394Z,102791.45
2023-01-23T00:39:18.501Z,102797.67
2023-01-23T00:41:48.575Z,102797.48
2023-01-23T00:44:17.780Z,102795.20
2023-01-23T00:46:46.813Z,102795.92
2023-01-23T00:49:17.952Z,102798.05
2023-01-23T00:51:46.634Z,102807.77
2023-01-23T00:54:15.207Z,102806.25
2023-01-23T00:56:44.122Z,102811.92
2023-01-23T00:59:13.201Z,102814.20
2023-01-23T01:01:41.607Z,102817.63
2023-01-23T01:04:10.387Z,102812.34
2023-01-23T01:06:38.765Z,102815.30
2023-01-23T01:09:06.944Z,102815.61
2023-01-23T01:11:35.225Z,102815.73
2023-01-23T01:14:04.224Z,102811.25
2023-01-23T01:16:32.446Z,102809.61
2023-01-23T01:19:00.682Z,102815.59
2023-01-23T01:21:29.376Z,102814.31
2023-01-23T01:23:57.966Z,102817.81
2023-01-23T01:26:28.912Z,102817.59
2023-01-23T01:28:57.708Z,102817.95
2023-01-23T01:31:26.352Z,102819.17
2023-01-23T01:33:56.019Z,102819.98
2023-01-23T01:36:24.802Z,102817.34
2023-01-23T01:38:53.185Z,102814.89
2023-01-23T01:41:21.364Z,102815.58
2023-01-23T01:43:51.286Z,102817.58
2023-01-23T01:46:30.738Z,102822.30
2023-01-23T01:49:02.070Z,102827.70
2023-01-23T01:51:51.637Z,102831.48
2023-01-23T01:54:22.481Z,102834.08
2023-01-23T01:57:12.358Z,102835.44
2023-01-23T02:00:02.227Z,102837.73
2023-01-23T02:02:53.730Z,102838.02
2023-01-23T02:05:28.624Z,102839.86
2023-01-23T02:08:13.461Z,102842.65
2023-01-23T02:10:42.737Z,102846.34
2023-01-23T02:13:38.998Z,102845.69
2023-01-23T02:16:14.722Z,102846.92
2023-01-23T02:18:47.753Z,102843.87
2023-01-23T02:21:20.690Z,102845.27
2023-01-23T02:24:37.324Z,102844.38
2023-01-23T02:27:06.475Z,102851.51
2023-01-23T02:29:44.787Z,102849.59
2023-01-23T02:32:13.278Z,102849.05
2023-01-23T02:34:42.986Z,102849.11
2023-01-23T02:37:12.267Z,102854.48
2023-01-23T02:39:40.476Z,102853.58
2023-01-23T02:42:09.982Z,102853.19
2023-01-23T02:44:48.500Z,102858.41
2023-01-23T02:47:18.413Z,102862.04
2023-01-23T02:49:46.902Z,102870.64
2023-01-23T02:52:15.490Z,102872.64
2023-01-23T02:54:43.874Z,102868.06
2023-01-23T02:57:13.284Z,102867.41
2023-01-23T03:00:00.804Z,102870.52
2023-01-23T03:02:30.052Z,102868.70
2023-01-23T03:04:58.803Z,102872.51
2023-01-23T03:07:29.544Z,102874.09
2023-01-23T03:09:57.874Z,102879.38
2023-01-23T03:12:26.436Z,102886.63
2023-01-23T03:14:56.235Z,102887.30
2023-01-23T03:17:24.868Z,102886.92
2023-01-23T03:19:54.020Z,102885.97
2023-01-23T03:22:22.403Z,102887.09
2023-01-23T03:24:51.376Z,102885.34
2023-01-23T03:27:19.794Z,102890.89
2023-01-23T03:30:09.778Z,102891.27
2023-01-23T03:32:38.877Z,102892.11
2023-01-23T03:35:14.483Z,102893.58
2023-01-23T03:37:47.050Z,102886.86
2023-01-23T03:40:37.379Z,102888.07
2023-01-23T03:43:06.821Z,102883.50
2023-01-23T03:45:36.962Z,102887.99
2023-01-23T03:48:05.692Z,102885.85
2023-01-23T03:50:34.398Z,102884.77
2023-01-23T03:53:02.791Z,102889.31
2023-01-23T03:55:31.506Z,102887.37
2023-01-23T03:57:59.756Z,102887.83
2023-01-23T04:00:31.737Z,102888.47
2023-01-23T04:03:06.199Z,102893.11
2023-01-23T04:05:35.138Z,102895.34
2023-01-23T04:08:03.972Z,102895.92
2023-01-23T04:10:32.832Z,102894.81
2023-01-23T04:13:07.661Z,102897.89
2023-01-23T04:15:36.044Z,102901.23
2023-01-23T04:18:07.407Z,102905.89
2023-01-23T04:20:35.681Z,102909.84
2023-01-23T04:23:04.375Z,102914.63
2023-01-23T04:25:33.092Z,102918.38
2023-01-23T04:28:01.342Z,102918.04
2023-01-23T04:30:29.850Z,102918.23
2023-01-23T04:33:00.873Z,102914.33
2023-01-23T04:35:29.466Z,102919.31
2023-01-23T04:37:57.652Z,102918.09
2023-01-23T04:40:27.219Z,102919.73
2023-01-23T04:42:59.124Z,102917.64
2023-01-23T04:45:43.985Z,102916.56
2023-01-23T04:48:13.613Z,102917.09
2023-01-23T04:50:41.977Z,102921.94
2023-01-23T04:53:10.368Z,102921.84
2023-01-23T04:55:39.769Z,102920.20
2023-01-23T04:58:11.737Z,102918.70
2023-01-23T05:00:40.119Z,102922.95
2023-01-23T05:03:09.016Z,102928.48
2023-01-23T05:05:39.861Z,102937.31
2023-01-23T05:08:08.761Z,102940.58
2023-01-23T05:10:37.647Z,102948.05
2023-01-23T05:13:09.819Z,102948.63
2023-01-23T05:15:38.423Z,102953.11
2023-01-23T05:18:06.687Z,102952.05
2023-01-23T05:20:37.632Z,102959.16
2023-01-23T05:23:06.327Z,102969.98
2023-01-23T05:25:43.304Z,102969.94
2023-01-23T05:28:12.065Z,102970.64
2023-01-23T05:30:46.207Z,102973.25
2023-01-23T05:33:22.989Z,102973.05
2023-01-23T05:35:51.619Z,102973.55
2023-01-23T05:38:20.474Z,102974.44
2023-01-23T05:40:48.658Z,102976.98
2023-01-23T05:43:17.596Z,102975.57
2023-01-23T05:46:05.485Z,102977.95
2023-01-23T05:48:53.922Z,102982.21
2023-01-23T05:51:23.595Z,102983.84
2023-01-23T05:53:52.441Z,102984.20
2023-01-23T05:56:21.232Z,102987.02
2023-01-23T05:59:09.972Z,102996.15
2023-01-23T06:01:44.496Z,102999.92
2023-01-23T06:04:31.483Z,103001.52
2023-01-23T06:07:18.210Z,103003.63
2023-01-23T06:09:47.321Z,103006.11
2023-01-23T06:12:16.212Z,103011.03
2023-01-23T06:14:44.404Z,103016.98
2023-01-23T06:17:13.616Z,103015.55
2023-01-23T06:19:42.589Z,103017.85
2023-01-23T06:22:12.200Z,103016.63
2023-01-23T06:24:57.471Z,103017.82
2023-01-23T06:27:26.070Z,103020.72
2023-01-23T06:29:54.966Z,103025.95
2023-01-23T06:32:23.849Z,103028.80
2023-01-23T06:34:52.446Z,103031.79
2023-01-23T06:37:20.620Z,103036.84
2023-01-23T06:39:49.309Z,103042.02
2023-01-23T06:42:17.898Z,103042.65
2023-01-23T06:44:49.662Z,103042.96
2023-01-23T06:47:19.170Z,103042.41
2023-01-23T06:49:52.575Z,103042.14
2023-01-23T06:52:21.058Z,103044.58
2023-01-23T06:54:49.551Z,103043.96
2023-01-23T06:57:18.546Z,103049.33
2023-01-23T06:59:47.785Z,103048.54
2023-01-23T07:02:17.048Z,103056.58
2023-01-23T07:04:52.607Z,103058.39
2023-01-23T07:07:21.598Z,103053.40
2023-01-23T07:09:50.533Z,103053.94
2023-01-23T07:12:25.237Z,103052.96
2023-01-23T07:14:53.610Z,103052.66
2023-01-23T07:17:30.382Z,103057.45
2023-01-23T07:19:58.771Z,103058.48
2023-01-23T07:22:27.148Z,103061.09
2023-01-23T07:24:55.952Z,103063.57
2023-01-23T07:27:24.431Z,103064.98
2023-01-23T07:29:52.937Z,103071.77
2023-01-23T07:32:21.412Z,103072.88
2023-01-23T07:34:49.787Z,103071.98
2023-01-23T07:37:18.174Z,103069.66
2023-01-23T07:39:46.351Z,103068.92
2023-01-23T07:42:14.744Z,103066.73
2023-01-23T07:44:43.533Z,103071.40
2023-01-23T07:47:12.016Z,103075.67
2023-01-23T07:49:40.404Z,103077.62
2023-01-23T07:52:09.317Z,103082.05
2023-01-23T07:54:37.786Z,103090.52
2023-01-23T07:57:06.084Z,103091.88
2023-01-23T07:59:34.555Z,103089.85
2023-01-23T08:02:03.244Z,103093.63
2023-01-23T08:04:31.547Z,103089.13
2023-01-23T08:06:59.713Z,103093.54
2023-01-23T08:09:28.429Z,103095.83
2023-01-23T08:11:56.791Z,103096.13
2023-01-23T08:14:25.173Z,103098.73
2023-01-23T08:16:54.239Z,103101.48
2023-01-23T08:19:25.418Z,103102.64
2023-01-23T08:21:54.006Z,103106.06
2023-01-23T08:24:22.699Z,103109.83
2023-01-23T08:26:51.187Z,103116.55
2023-01-23T08:29:19.995Z,103124.52
2023-01-23T08:31:48.740Z,103119.92
2023-01-23T08:34:16.950Z,103126.50
2023-01-23T08:36:45.601Z,103132.15
2023-01-23T08:39:13.920Z,103129.77
2023-01-23T08:41:42.307Z,103128.48
2023-01-23T08:44:10.997Z,103127.25
2023-01-23T08:46:39.550Z,103131.52
2023-01-23T08:49:08.523Z,103130.84
2023-01-23T08:51:37.793Z,103127.70
2023-01-23T08:54:06.383Z,103136.57
2023-01-23T08:56:34.867Z,103133.59
2023-01-23T08:59:03.758Z,103134.84
2023-01-23T09:01:32.569Z,103134.34
2023-01-23T09:04:01.042Z,103137.75
2023-01-23T09:06:29.630Z,103137.79
2023-01-23T09:08:57.910Z,103137.48
2023-01-23T09:11:26.294Z,103135.16
2023-01-23T09:13:54.675Z,103136.88
2023-01-23T09:16:22.905Z,103133.67
2023-01-23T09:18:51.257Z,103134.70
2023-01-23T09:21:19.532Z,103136.96
2023-01-23T09:23:47.913Z,103138.65
2023-01-23T09:26:17.639Z,103138.64
2023-01-23T09:28:47.978Z,103139.25
2023-01-23T09:31:16.853Z,103137.88
2023-01-23T09:33:45.234Z,103143.41
2023-01-23T09:36:13.834Z,103139.44
2023-01-23T09:38:42.123Z,103142.45
2023-01-23T09:41:19.911Z,103136.45
2023-01-23T09:43:58.935Z,103140.54
2023-01-23T09:46:37.962Z,103136.83
2023-01-23T09:49:29.032Z,103132.36
2023-01-23T09:52:20.881Z,103128.23
2023-01-23T09:55:18.335Z,103125.84
2023-01-23T09:57:55.010Z,103124.39
2023-01-23T10:00:30.323Z,103123.64
2023-01-23T10:03:04.561Z,103115.86
2023-01-23T10:05:55.765Z,103111.41
2023-01-23T10:08:52.293Z,103113.70
2023-01-23T10:11:50.050Z,103109.98
2023-01-23T10:14:36.788Z,103105.80
2023-01-23T10:17:15.430Z,103100.40
2023-01-23T10:19:52.449Z,103094.05
2023-01-23T10:22:58.596Z,103095.84
2023-01-23T10:25:33.329Z,103094.16
2023-01-23T10:28:20.850Z,103091.41
2023-01-23T10:30:55.683Z,103085.73
2023-01-23T10:33:36.752Z,103083.27
2023-01-23T10:36:23.636Z,103078.59
2023-01-23T10:39:10.360Z,103075.77
2023-01-23T10:41:39.314Z,103075.02
2023-01-23T10:44:19.520Z,103077.10
2023-01-23T10:46:54.606Z,103078.31
2023-01-23T10:49:39.120Z,103075.60
2023-01-23T10:52:30.267Z,103071.76
2023-01-23T10:54:58.797Z,103076.92
2023-01-23T10:57:31.467Z,103075.81
2023-01-23T11:00:08.501Z,103069.77
2023-01-23T11:02:40.913Z,103064.32
2023-01-23T11:05:46.806Z,103055.14
2023-01-23T11:08:51.895Z,103050.96
2023-01-23T11:11:25.886Z,103050.78
2023-01-23T11:14:05.551Z,103049.83
2023-01-23T11:16:34.821Z,103041.19
2023-01-23T11:19:08.988Z,103039.22
2023-01-23T11:21:50.663Z,103038.44
2023-01-23T11:24:41.501Z,103035.14
2023-01-23T11:27:16.089Z,103035.38
2023-01-23T11:30:02.995Z,103030.81
2023-01-23T11:32:35.756Z,103028.16
2023-01-23T11:35:15.118Z,103023.91
2023-01-23T11:37:43.566Z,103024.36
2023-01-23T11:40:15.350Z,103029.07
2023-01-23T11:42:45.320Z,103029.81
2023-01-23T11:45:20.103Z,103033.23
2023-01-23T11:48:08.708Z,103027.05
2023-01-23T11:50:55.939Z,103032.23
2023-01-23T11:53:41.467Z,103034.20
2023-01-23T11:56:22.286Z,103036.70
2023-01-23T11:59:32.240Z,103031.36
2023-01-23T12:02:39.651Z,103030.96
2023-01-23T12:05:15.378Z,103031.41
2023-01-23T12:08:16.496Z,103034.09
2023-01-23T12:10:59.930Z,103034.07
2023-01-23T12:14:03.139Z,103035.50
2023-01-23T12:16:52.168Z,103035.48
2023-01-23T12:19:49.911Z,103032.14
2023-01-23T12:22:18.307Z,103029.73
2023-01-23T12:25:01.621Z,103030.97
2023-01-23T12:27:39.215Z,103031.87
2023-01-23T12:30:16.709Z,103035.68
2023-01-23T12:32:57.789Z,103034.46
2023-01-23T12:35:47.454Z,103038.52
2023-01-23T12:38:18.498Z,103039.91
2023-01-23T12:40:52.718Z,103052.63
2023-01-23T12:43:38.365Z,103050.48
2023-01-23T12:46:34.237Z,103051.14
2023-01-23T12:49:24.284Z,103053.68
2023-01-23T12:52:08.640Z,103055.40
2023-01-23T12:54:43.326Z,103057.88
2023-01-23T12:57:13.495Z,103062.31
2023-01-23T12:59:50.507Z,103061.59
2023-01-23T13:02:34.205Z,103061.52
2023-01-23T13:05:27.350Z,103063.63
2023-01-23T13:08:22.443Z,103060.41
2023-01-23T13:11:19.706Z,103063.80
2023-01-23T13:13:48.384Z,103074.09
2023-01-23T13:16:19.110Z,103071.27
2023-01-23T13:19:16.983Z,103071.33
2023-01-23T13:22:30.668Z,103067.98
2023-01-23T13:25:17.395Z,103065.87
2023-01-23T13:27:51.613Z,103068.84
2023-01-23T13:30:33.000Z,103071.97
2023-01-23T13:33:07.024Z,103070.75
2023-01-23T13:35:49.103Z,103067.58
2023-01-23T13:38:25.589Z,103075.20
2023-01-23T13:41:08.687Z,103077.69
2023-01-23T13:43:50.127Z,103074.61
2023-01-23T13:46:41.119Z,103074.08
2023-01-23T14:22:45.333Z,103067.79
2023-01-23T14:25:27.635Z,103066.75
2023-01-23T14:28:17.873Z,103063.40
2023-01-23T14:31:01.299Z,103064.32
2023-01-23T14:33:41.394Z,103069.46
2023-01-23T14:36:16.329Z,103069.00
2023-01-23T14:38:47.477Z,103069.16
2023-01-23T14:41:19.076Z,103072.02
2023-01-23T14:43:48.035Z,103069.19
2023-01-23T14:46:20.199Z,103075.52
2023-01-23T14:48:54.738Z,103077.09
2023-01-23T14:51:25.478Z,103077.25
2023-01-23T14:53:59.076Z,103077.02
2023-01-23T14:56:39.645Z,103080.73
2023-01-23T14:59:19.894Z,103078.23
2023-01-23T15:01:56.457Z,103082.98
2023-01-23T15:04:28.124Z,103081.73
2023-01-23T15:07:01.725Z,103082.28
2023-01-23T15:09:43.119Z,103078.48
2023-01-23T15:12:18.890Z,103073.46
2023-01-23T15:14:55.383Z,103074.14
2023-01-23T15:17:23.810Z,103074.33
2023-01-23T15:19:59.593Z,103078.60
2023-01-23T15:22:30.135Z,103078.12
2023-01-23T15:25:26.223Z,103082.45
2023-01-23T15:27:54.599Z,103084.42
2023-01-23T15:30:45.317Z,103083.18
2023-01-23T15:33:27.418Z,103084.63
2023-01-23T15:36:23.812Z,103086.38
2023-01-23T15:38:52.962Z,103087.73
2023-01-23T15:41:33.746Z,103087.47
2023-01-23T15:44:02.781Z,103086.48
2023-01-23T15:46:31.417Z,103085.48
2023-01-23T15:48:59.853Z,103087.17
2023-01-23T15:51:28.041Z,103090.61
2023-01-23T15:53:56.422Z,103092.70
2023-01-23T15:56:30.739Z,103094.55
2023-01-23T15:59:02.505Z,103095.83
2023-01-23T16:01:31.199Z,103090.39
2023-01-23T16:03:59.577Z,103097.00
2023-01-23T16:06:27.971Z,103094.02
2023-01-23T16:09:05.304Z,103097.56
2023-01-23T16:11:35.622Z,103100.77
2023-01-23T16:14:03.863Z,103100.50
2023-01-23T16:16:32.407Z,103101.08
2023-01-23T16:19:00.831Z,103103.41
2023-01-23T16:21:30.666Z,103103.07
2023-01-23T16:23:59.519Z,103106.95
2023-01-23T16:26:28.590Z,103110.77
2023-01-23T16:29:08.718Z,103111.05
2023-01-23T16:31:41.847Z,103110.09
2023-01-23T16:34:10.382Z,103108.41
2023-01-23T16:36:39.078Z,103112.64
2023-01-23T16:39:20.040Z,103113.48
2023-01-23T16:41:49.047Z,103115.39
2023-01-23T16:44:19.158Z,103118.08
2023-01-23T16:46:48.841Z,103119.52
2023-01-23T16:49:17.672Z,103126.06
2023-01-23T16:51:57.929Z,103128.05
2023-01-23T16:54:27.030Z,103133.51
2023-01-23T16:56:57.266Z,103132.42
2023-01-23T16:59:37.524Z,103127.45
2023-01-23T17:02:30.993Z,103126.19
2023-01-23T17:04:59.555Z,103123.56
2023-01-23T17:07:27.944Z,103120.28
2023-01-23T17:09:56.643Z,103119.66
2023-01-23T17:12:31.770Z,103125.52
2023-01-23T17:15:00.261Z,103126.59
2023-01-23T17:17:37.543Z,103126.64
2023-01-23T17:20:06.970Z,103124.16
2023-01-23T17:22:39.454Z,103132.96
2023-01-23T17:25:13.965Z,103134.66
2023-01-23T17:27:45.563Z,103131.10
2023-01-23T17:30:25.343Z,103133.94
2023-01-23T17:32:56.516Z,103133.80
2023-01-23T17:35:29.286Z,103138.75
2023-01-23T17:37:58.180Z,103137.23
2023-01-23T17:40:26.671Z,103136.95
2023-01-23T17:42:55.777Z,103135.73
2023-01-23T17:45:27.290Z,103134.54
2023-01-23T17:47:56.027Z,103137.20
2023-01-23T17:50:27.072Z,103136.70
2023-01-23T17:52:55.346Z,103137.98
2023-01-23T17:55:28.954Z,103138.17
2023-01-23T17:57:57.234Z,103139.05
2023-01-23T18:00:27.360Z,103139.26
2023-01-23T18:02:58.710Z,103142.48
2023-01-23T18:05:28.014Z,103140.36
2023-01-23T18:07:56.806Z,103146.52
2023-01-23T18:10:29.238Z,103145.89
2023-01-23T18:13:56.207Z,103148.86
2023-01-23T18:16:36.401Z,103149.07
2023-01-23T18:19:23.062Z,103149.45
2023-01-23T18:21:54.738Z,103147.88
2023-01-23T18:24:32.822Z,103152.52
2023-01-23T18:27:11.901Z,103152.57
2023-01-23T18:30:08.700Z,103146.77
2023-01-23T18:33:13.777Z,103147.14
2023-01-23T18:35:54.065Z,103147.11
2023-01-23T18:38:31.559Z,103154.70
2023-01-23T18:41:22.571Z,103156.28
2023-01-23T18:44:02.630Z,103161.21
2023-01-23T18:46:31.369Z,103155.73
2023-01-23T18:49:00.469Z,103156.45
2023-01-23T18:51:40.958Z,103156.83
2023-01-23T18:54:23.169Z,103154.59
2023-01-23T18:56:51.848Z,103158.52
2023-01-23T18:59:37.531Z,103160.28
2023-01-23T19:02:21.556Z,103166.45
2023-01-23T19:04:57.838Z,103165.91
2023-01-23T19:07:26.423Z,103166.79
2023-01-23T19:09:55.338Z,103171.02
2023-01-23T19:12:34.272Z,103173.48
2023-01-23T19:15:21.421Z,103176.27
2023-01-23T19:18:11.768Z,103176.06
2023-01-23T19:20:48.572Z,103171.81
2023-01-23T19:23:23.859Z,103173.07
2023-01-23T19:25:52.345Z,103169.71
2023-01-23T19:28:21.160Z,103169.15
2023-01-23T19:30:49.997Z,103170.33
2023-01-23T19:33:20.497Z,103168.35
2023-01-23T19:35:51.450Z,103168.48
2023-01-23T19:38:20.340Z,103162.10
2023-01-23T19:40:49.829Z,103166.11
2023-01-23T19:43:18.410Z,103165.07
2023-01-23T19:45:47.162Z,103168.44
2023-01-23T19:48:15.383Z,103166.83
2023-01-23T19:50:44.383Z,103166.84
2023-01-23T19:53:14.522Z,103168.34
2023-01-23T19:55:43.201Z,103163.23
2023-01-23T19:58:11.683Z,103157.04
2023-01-23T20:00:40.169Z,103159.11
2023-01-23T20:03:10.803Z,103154.50
2023-01-23T20:05:39.085Z,103146.92
2023-01-23T20:08:09.176Z,103136.73
2023-01-23T20:10:39.026Z,103134.33
2023-01-23T20:13:08.904Z,103136.70
2023-01-23T20:15:37.756Z,103138.29
2023-01-23T20:18:06.122Z,103142.56
2023-01-23T20:20:34.410Z,103148.55
2023-01-23T20:23:02.794Z,103151.71
2023-01-23T20:25:30.970Z,103155.23
2023-01-23T20:27:59.457Z,103155.95
2023-01-23T20:30:28.230Z,103162.31
2023-01-23T20:35:30.546Z,103160.90
2023-01-23T20:37:58.724Z,103165.70
2023-01-23T20:40:28.234Z,103161.84
2023-01-23T20:42:56.515Z,103156.84
2023-01-23T20:45:26.846Z,103158.25
2023-01-23T20:47:58.201Z,103152.75
2023-01-23T20:50:26.589Z,103151.13
2023-01-23T20:53:13.899Z,103153.56
2023-01-23T20:55:42.079Z,103156.06
2023-01-23T20:58:29.184Z,103159.46
2023-01-23T21:00:57.985Z,103157.34
2023-01-23T21:03:26.370Z,103163.34
2023-01-23T21:05:54.648Z,103163.19
2023-01-23T21:08:23.623Z,103169.23
2023-01-23T21:10:53.176Z,103172.26
2023-01-23T21:13:21.545Z,103176.86
2023-01-23T21:16:16.551Z,103177.78
2023-01-23T21:18:47.099Z,103180.80
2023-01-23T21:21:18.316Z,103178.35
2023-01-23T21:23:49.105Z,103176.59
2023-01-23T21:26:22.972Z,103178.38
2023-01-23T21:28:52.911Z,103171.36
2023-01-23T21:31:33.646Z,103169.63
2023-01-23T21:34:04.662Z,103169.64
2023-01-23T21:36:33.182Z,103168.74
2023-01-23T21:39:01.877Z,103165.73
2023-01-23T21:41:30.568Z,103163.79
2023-01-23T21:43:59.155Z,103162.20
2023-01-23T21:46:27.783Z,103157.42
2023-01-23T21:48:56.013Z,103160.03
2023-01-23T21:51:25.509Z,103159.84
2023-01-23T21:53:54.143Z,103152.77
2023-01-23T21:56:23.954Z,103151.55
2023-01-23T21:58:53.353Z,103151.19
2023-01-23T22:01:32.719Z,103148.38
2023-01-23T22:04:24.205Z,103148.77
2023-01-23T22:06:56.929Z,103145.93
2023-01-23T22:09:26.225Z,103142.04
2023-01-23T22:11:55.745Z,103142.94
2023-01-23T22:14:24.250Z,103138.86
2023-01-23T22:16:52.632Z,103143.85
2023-01-23T22:19:25.550Z,103145.27
2023-01-23T22:21:54.797Z,103150.61
2023-01-23T22:24:23.451Z,103145.35
2023-01-23T22:26:52.572Z,103142.56
2023-01-23T22:29:21.649Z,103139.58
2023-01-23T22:31:51.374Z,103140.10
2023-01-23T22:34:19.860Z,103139.56
2023-01-23T22:36:48.248Z,103134.80
2023-01-23T22:39:16.427Z,103137.95
2023-01-23T22:41:50.450Z,103133.70
2023-01-23T22:44:19.324Z,103131.20
2023-01-23T22:46:51.710Z,103132.06
2023-01-23T22:49:20.193Z,103135.21
2023-01-23T22:51:48.478Z,103133.45
2023-01-23T22:54:16.549Z,103130.83
2023-01-23T22:56:44.936Z,103131.39
2023-01-23T22:59:13.521Z,103127.89
2023-01-23T23:01:42.116Z,103125.29
2023-01-23T23:04:10.611Z,103126.03
2023-01-23T23:06:39.388Z,103125.88
2023-01-23T23:09:07.672Z,103128.88
2023-01-23T23:11:37.295Z,103127.10
2023-01-23T23:14:05.667Z,103131.69
2023-01-23T23:16:33.965Z,103126.22
2023-01-23T23:19:04.457Z,103126.04
2023-01-23T23:21:36.348Z,103125.65
2023-01-23T23:24:08.420Z,103128.30
2023-01-23T23:26:37.007Z,103131.42
2023-01-23T23:29:06.008Z,103131.38
2023-01-23T23:31:35.140Z,103129.72
2023-01-23T23:34:03.695Z,103128.97
2023-01-23T23:36:32.624Z,103128.23
2023-01-23T23:39:01.302Z,103122.95
2023-01-23T23:41:29.985Z,103126.49
2023-01-23T23:43:58.466Z,103130.02
2023-01-23T23:46:27.049Z,103124.20
2023-01-23T23:48:55.570Z,103124.39
2023-01-23T23:51:26.738Z,103120.89
2023-01-23T23:53:55.783Z,103122.15
2023-01-23T23:56:29.183Z,103122.00
2023-01-23T23:58:58.063Z,103121.67
